Terminal Aerodrome Forecast
Issued by NWS

Home | Current Version | Previous Version | Text Only | Print | Product List | Glossary On
Versions: 1 2 3 4 5 6 7 8 9 10 11 12 13
000
FTUS41 KCAR 271123
TAFBHB
TAF
KBHB 271123Z 2712/2812 20006KT P6SM VCSH BKN025 OVC050
      TEMPO 2712/2714 -RA OVC015
     FM271400 VRB03KT 5SM -RA BR OVC015
     FM271800 04006KT 5SM BR VCSH OVC006
     FM280100 05008KT 2SM -DZ BR OVC003=

USA.gov is the U.S. government's official web portal to all federal, state and local government web resources and services.